createdAt,value
2023-04-25T00:08:56.284Z,0.1119
2023-04-25T00:18:56.775Z,0.1237
2023-04-25T00:28:56.446Z,0.1354
2023-04-25T00:38:56.358Z,0.1471
2023-04-25T00:48:56.060Z,0.1589
2023-04-25T00:58:56.109Z,0.1707
2023-04-25T01:08:56.095Z,0.1828
2023-04-25T01:18:56.150Z,0.1952
2023-04-25T01:28:56.038Z,0.2076
2023-04-25T01:38:56.068Z,0.2201
2023-04-25T01:48:56.668Z,0.2325
2023-04-25T01:58:56.031Z,0.2449
2023-04-25T02:08:56.370Z,0.2576
2023-04-25T02:18:56.510Z,0.2705
2023-04-25T02:28:56.447Z,0.2833
2023-04-25T02:38:56.204Z,0.2961
2023-04-25T02:48:57.500Z,0.3090
2023-04-25T02:58:56.238Z,0.3218
2023-04-25T03:08:56.162Z,0.3347
2023-04-25T03:18:56.309Z,0.3475
2023-04-25T03:28:56.171Z,0.3604
2023-04-25T03:38:56.327Z,0.3732
2023-04-25T03:48:56.201Z,0.3861
2023-04-25T03:58:56.194Z,0.3989
2023-04-25T04:08:56.228Z,0.4118
2023-04-25T04:18:56.210Z,0.4246
2023-04-25T04:28:56.293Z,0.4375
2023-04-25T04:38:56.236Z,0.4503
2023-04-25T04:48:56.302Z,0.4632
2023-04-25T04:58:56.188Z,0.4760
2023-04-25T05:08:56.585Z,0.4889
2023-04-25T05:18:56.373Z,0.5017
2023-04-25T05:28:56.075Z,0.5146
2023-04-25T05:38:56.241Z,0.5274
2023-04-25T05:48:56.071Z,0.5402
2023-04-25T05:58:57.329Z,0.5531
2023-04-25T06:08:57.333Z,0.5659
2023-04-25T06:18:56.706Z,0.5788
2023-04-25T06:28:56.964Z,0.5916
2023-04-25T06:38:56.983Z,0.6045
2023-04-25T06:48:56.875Z,0.6173
2023-04-25T06:58:57.148Z,0.6302
2023-04-25T07:08:57.479Z,0.6430
2023-04-25T07:18:57.079Z,0.6559
2023-04-25T07:28:56.972Z,0.6687
2023-04-25T07:38:56.909Z,0.6816
2023-04-25T07:48:56.898Z,0.6944
2023-04-25T07:58:56.716Z,0.7073
2023-04-25T08:08:57.096Z,0.7212
2023-04-25T08:18:57.041Z,0.7383
2023-04-25T08:28:56.765Z,0.7559
2023-04-25T08:38:57.359Z,0.7735
2023-04-25T08:48:58.030Z,0.7911
2023-04-25T08:58:57.563Z,0.8086
2023-04-25T09:08:56.885Z,0.8262
2023-04-25T09:18:56.871Z,0.8438
2023-04-25T09:28:56.912Z,0.8661
2023-04-25T09:38:57.488Z,0.8915
2023-04-25T09:48:57.282Z,0.9170
2023-04-25T09:58:56.977Z,0.9425
2023-04-25T10:08:56.966Z,0.9680
2023-04-25T10:18:56.813Z,0.9935
2023-04-25T10:28:57.319Z,1.0195
2023-04-25T10:38:57.255Z,1.0462
2023-04-25T10:48:56.931Z,1.0741
2023-04-25T10:58:57.015Z,1.1029
2023-04-25T11:08:56.820Z,1.1322
2023-04-25T11:18:56.758Z,1.1617
2023-04-25T11:28:56.853Z,1.1912
2023-04-25T11:38:57.413Z,1.2207
2023-04-25T11:48:56.755Z,1.2502
2023-04-25T11:58:56.924Z,1.2797
2023-04-25T12:08:57.010Z,1.3092
2023-04-25T12:18:56.864Z,1.3387
2023-04-25T12:28:56.755Z,1.3683
2023-04-25T12:38:57.079Z,1.3978
2023-04-25T12:49:00.661Z,1.4273
2023-04-25T12:58:56.972Z,1.4569
2023-04-25T13:08:56.819Z,1.4866
2023-04-25T13:18:57.363Z,1.5162
2023-04-25T13:28:57.117Z,1.5459
2023-04-25T13:38:57.784Z,1.5755
2023-04-25T13:49:03.010Z,1.6052
2023-04-25T13:58:56.894Z,1.6348
2023-04-25T14:08:57.807Z,1.6645
2023-04-25T14:18:57.629Z,1.6941
2023-04-25T14:28:56.797Z,1.7238
2023-04-25T14:38:58.202Z,1.7535
2023-04-25T14:48:57.184Z,1.7831
2023-04-25T14:58:56.842Z,1.8128
2023-04-25T15:08:56.910Z,1.8424
2023-04-25T15:18:57.434Z,1.8721
2023-04-25T15:28:56.860Z,1.9017
2023-04-25T15:38:56.820Z,1.9314
2023-04-25T15:48:57.123Z,1.9610
2023-04-25T15:58:56.859Z,1.9907
2023-04-25T16:08:57.242Z,2.0203
2023-04-25T16:18:56.817Z,2.0500
2023-04-25T16:28:56.912Z,2.0796
2023-04-25T16:38:57.198Z,2.1093
2023-04-25T16:48:56.832Z,2.1389
2023-04-25T16:58:56.764Z,2.1686
2023-04-25T17:08:57.133Z,2.1982
2023-04-25T17:18:57.247Z,2.2279
2023-04-25T17:28:56.857Z,2.2575
2023-04-25T17:38:56.989Z,2.2872
2023-04-25T17:48:57.308Z,2.3169
2023-04-25T17:58:56.851Z,2.3465
2023-04-25T18:08:56.889Z,2.3762
2023-04-25T18:18:57.336Z,2.4058
2023-04-25T18:28:56.993Z,2.4355
2023-04-25T18:38:59.517Z,2.4651
2023-04-25T18:48:56.892Z,2.4948
2023-04-25T18:58:57.164Z,2.5244
2023-04-25T19:08:56.847Z,2.5541
2023-04-25T19:18:57.385Z,2.5837
2023-04-25T19:28:57.028Z,2.6135
2023-04-25T19:38:56.861Z,2.6441
2023-04-25T19:48:57.056Z,2.6749
2023-04-25T19:58:57.002Z,2.7057
2023-04-25T20:08:57.186Z,2.7364
2023-04-25T20:18:57.136Z,2.7672
2023-04-25T20:28:59.414Z,2.7979
2023-04-25T20:38:57.255Z,2.8287
2023-04-25T20:48:57.001Z,2.8595
2023-04-25T20:58:57.290Z,2.8902
2023-04-25T21:08:57.074Z,2.9210
2023-04-25T21:18:57.213Z,2.9518
2023-04-25T21:28:57.131Z,2.9825
2023-04-25T21:38:57.113Z,3.0136
2023-04-25T21:48:57.164Z,3.0446
2023-04-25T21:58:56.871Z,3.0757
2023-04-25T22:08:57.726Z,0.0003
2023-04-25T22:18:57.134Z,0.0003
2023-04-25T22:28:56.930Z,0.0003
2023-04-25T22:38:57.028Z,0.0003
2023-04-25T22:48:57.953Z,0.0003
2023-04-25T22:58:56.910Z,0.0003
2023-04-25T23:08:57.577Z,0.0003
2023-04-25T23:18:56.929Z,0.0004
2023-04-25T23:28:57.422Z,0.0009
2023-04-25T23:38:58.113Z,0.0015
2023-04-25T23:48:57.565Z,0.0021
2023-04-25T23:58:57.809Z,0.0026
